TimeMST,TemperatureF,Dew PointF,Humidity,Sea Level PressureIn,VisibilityMPH,Wind Direction,Wind SpeedMPH,Gust SpeedMPH,PrecipitationIn,Events,Conditions,WindDirDegrees,DateUTC
12:15 AM,30.2,26.6,86,30.16,10.0,Calm,Calm,-,N/A,,Overcast,0,2014-01-11 07:15:00
12:35 AM,30.2,26.6,86,30.16,10.0,Calm,Calm,-,N/A,,Overcast,0,2014-01-11 07:35:00
12:55 AM,30.2,24.8,80,30.15,10.0,SE,4.6,-,N/A,,Mostly Cloudy,130,2014-01-11 07:55:00
1:15 AM,30.2,24.8,80,30.15,10.0,Calm,Calm,-,N/A,,Scattered Clouds,0,2014-01-11 08:15:00
1:35 AM,24.8,21.2,86,30.16,10.0,SE,5.8,-,N/A,,Clear,140,2014-01-11 08:35:00
1:55 AM,30.2,24.8,80,30.16,10.0,SSE,5.8,-,N/A,,Scattered Clouds,160,2014-01-11 08:55:00
2:15 AM,26.6,21.2,80,30.17,10.0,ENE,4.6,-,N/A,,Mostly Cloudy,70,2014-01-11 09:15:00
2:35 AM,28.4,23.0,80,30.17,10.0,Calm,Calm,-,N/A,,Overcast,0,2014-01-11 09:35:00
2:55 AM,26.6,21.2,80,30.17,10.0,Calm,Calm,-,N/A,,Mostly Cloudy,0,2014-01-11 09:55:00
3:15 AM,23.0,21.2,93,30.18,10.0,Calm,Calm,-,N/A,,Clear,0,2014-01-11 10:15:00
3:35 AM,23.0,21.2,93,30.17,10.0,Calm,Calm,-,N/A,,Scattered Clouds,0,2014-01-11 10:35:00
3:55 AM,21.2,19.4,93,30.17,10.0,ESE,4.6,-,N/A,,Clear,110,2014-01-11 10:55:00
4:15 AM,21.2,19.4,93,30.17,10.0,SE,3.5,-,N/A,,Clear,140,2014-01-11 11:15:00
4:35 AM,21.2,17.6,86,30.17,10.0,Calm,Calm,-,N/A,,Clear,0,2014-01-11 11:35:00
4:55 AM,19.4,17.6,93,30.17,10.0,Calm,Calm,-,N/A,,Clear,0,2014-01-11 11:55:00
5:15 AM,17.6,15.8,93,30.17,10.0,Calm,Calm,-,N/A,,Clear,0,2014-01-11 12:15:00
5:35 AM,17.6,17.6,100,30.17,10.0,SE,3.5,-,N/A,,Clear,130,2014-01-11 12:35:00
5:55 AM,17.6,15.8,93,30.17,10.0,Calm,Calm,-,N/A,,Clear,0,2014-01-11 12:55:00
6:15 AM,19.4,17.6,93,30.18,10.0,Calm,Calm,-,N/A,,Clear,0,2014-01-11 13:15:00
6:35 AM,15.8,14.0,93,30.18,10.0,Calm,Calm,-,N/A,,Clear,0,2014-01-11 13:35:00
6:55 AM,19.4,19.4,100,30.19,10.0,Calm,Calm,-,N/A,,Clear,0,2014-01-11 13:55:00
7:15 AM,12.2,10.4,92,30.18,10.0,Calm,Calm,-,N/A,,Clear,0,2014-01-11 14:15:00
7:35 AM,12.2,10.4,92,30.19,0.8,Calm,Calm,-,N/A,,Mist,0,2014-01-11 14:35:00
7:55 AM,15.8,14.0,93,30.18,5.0,Calm,Calm,-,N/A,,Clear,0,2014-01-11 14:55:00
8:15 AM,12.2,10.4,92,30.19,10.0,Calm,Calm,-,N/A,,Clear,0,2014-01-11 15:15:00
8:35 AM,15.8,14.0,93,30.19,10.0,Calm,Calm,-,N/A,,Clear,0,2014-01-11 15:35:00
8:55 AM,21.2,19.4,93,30.18,7.0,Calm,Calm,-,N/A,,Clear,0,2014-01-11 15:55:00
9:15 AM,21.2,19.4,93,30.19,7.0,Calm,Calm,-,N/A,,Clear,0,2014-01-11 16:15:00
9:35 AM,23.0,21.2,93,30.19,7.0,Calm,Calm,-,N/A,,Clear,0,2014-01-11 16:35:00
9:55 AM,21.2,21.2,100,30.18,7.0,Calm,Calm,-,N/A,,Clear,0,2014-01-11 16:55:00
10:15 AM,23.0,23.0,100,30.18,10.0,Calm,Calm,-,N/A,,Clear,0,2014-01-11 17:15:00
10:35 AM,24.8,23.0,93,30.17,10.0,Calm,Calm,-,N/A,,Clear,0,2014-01-11 17:35:00
10:55 AM,26.6,23.0,86,30.16,10.0,Calm,Calm,-,N/A,,Clear,0,2014-01-11 17:55:00
11:15 AM,23.0,19.4,86,30.14,10.0,Calm,Calm,-,N/A,,Clear,0,2014-01-11 18:15:00
11:35 AM,28.4,23.0,80,30.14,10.0,Calm,Calm,-,N/A,,Clear,0,2014-01-11 18:35:00
11:55 AM,32.0,23.0,69,30.11,10.0,Calm,Calm,-,N/A,,Clear,0,2014-01-11 18:55:00
12:15 PM,30.2,23.0,75,30.09,10.0,Calm,Calm,-,N/A,,Clear,0,2014-01-11 19:15:00
12:35 PM,32.0,23.0,69,30.06,10.0,Calm,Calm,-,N/A,,Clear,0,2014-01-11 19:35:00
12:55 PM,32.0,24.8,75,30.04,10.0,Calm,Calm,-,N/A,,Clear,0,2014-01-11 19:55:00
1:15 PM,32.0,24.8,75,30.02,10.0,ESE,4.6,-,N/A,,Clear,110,2014-01-11 20:15:00
1:35 PM,33.8,26.6,75,30.01,10.0,East,4.6,-,N/A,,Clear,80,2014-01-11 20:35:00
1:55 PM,32.0,26.6,80,30.00,10.0,Calm,Calm,-,N/A,,Clear,0,2014-01-11 20:55:00
2:15 PM,32.0,26.6,80,29.99,10.0,Calm,Calm,-,N/A,,Clear,0,2014-01-11 21:15:00
2:35 PM,41.0,26.6,57,29.98,10.0,SSW,3.5,-,N/A,,Clear,200,2014-01-11 21:35:00
2:55 PM,39.2,26.6,61,29.97,10.0,Calm,Calm,-,N/A,,Mostly Cloudy,0,2014-01-11 21:55:00
3:15 PM,42.8,28.4,57,29.96,10.0,SSW,5.8,-,N/A,,Overcast,200,2014-01-11 22:15:00
3:35 PM,44.6,26.6,49,29.95,10.0,South,6.9,-,N/A,,Overcast,170,2014-01-11 22:35:00
3:55 PM,42.8,28.4,57,29.95,10.0,Calm,Calm,-,N/A,,Overcast,0,2014-01-11 22:55:00
4:15 PM,42.8,28.4,57,29.94,10.0,Calm,Calm,-,N/A,,Overcast,0,2014-01-11 23:15:00
4:35 PM,44.6,26.6,49,29.93,10.0,Calm,Calm,-,N/A,,Scattered Clouds,0,2014-01-11 23:35:00
4:55 PM,42.8,26.6,53,29.92,10.0,South,5.8,-,N/A,,Clear,180,2014-01-11 23:55:00
5:15 PM,42.8,26.6,53,29.91,10.0,SW,9.2,-,N/A,,Scattered Clouds,220,2014-01-12 00:15:00
5:35 PM,41.0,28.4,61,29.90,10.0,Calm,Calm,-,N/A,,Overcast,0,2014-01-12 00:35:00
5:55 PM,42.8,26.6,53,29.90,10.0,South,3.5,-,N/A,,Overcast,190,2014-01-12 00:55:00
6:15 PM,42.8,26.6,53,29.90,10.0,WSW,11.5,-,N/A,,Mostly Cloudy,240,2014-01-12 01:15:00
6:35 PM,42.8,26.6,53,29.89,10.0,SW,12.7,-,N/A,,Overcast,220,2014-01-12 01:35:00
6:55 PM,44.6,26.6,49,29.89,10.0,SW,17.3,-,N/A,,Scattered Clouds,230,2014-01-12 01:55:00
7:15 PM,42.8,26.6,53,29.88,10.0,SW,15.0,19.6,N/A,,Scattered Clouds,230,2014-01-12 02:15:00
7:35 PM,44.6,26.6,49,29.83,10.0,SW,17.3,21.9,N/A,,Scattered Clouds,220,2014-01-12 02:35:00
7:55 PM,42.8,28.4,57,29.82,10.0,SW,11.5,-,N/A,,Scattered Clouds,230,2014-01-12 02:55:00
8:15 PM,41.0,28.4,61,29.82,10.0,WSW,11.5,-,N/A,,Scattered Clouds,250,2014-01-12 03:15:00
8:35 PM,42.8,28.4,57,29.83,10.0,West,15.0,-,N/A,,Mostly Cloudy,260,2014-01-12 03:35:00
8:55 PM,42.8,26.6,53,29.82,10.0,WSW,18.4,-,N/A,,Mostly Cloudy,240,2014-01-12 03:55:00
9:15 PM,44.6,26.6,49,29.82,10.0,WSW,13.8,23.0,N/A,,Mostly Cloudy,250,2014-01-12 04:15:00
9:35 PM,42.8,26.6,53,29.81,10.0,WSW,19.6,25.3,N/A,,Mostly Cloudy,240,2014-01-12 04:35:00
9:55 PM,44.6,26.6,49,29.81,10.0,WSW,21.9,29.9,N/A,,Overcast,240,2014-01-12 04:55:00
10:15 PM,42.8,26.6,53,29.80,10.0,SW,24.2,32.2,N/A,,Mostly Cloudy,230,2014-01-12 05:15:00
10:35 PM,42.8,26.6,53,29.79,10.0,SW,20.7,32.2,N/A,,Mostly Cloudy,220,2014-01-12 05:35:00
10:55 PM,42.8,26.6,53,29.79,10.0,SW,24.2,28.8,N/A,,Overcast,230,2014-01-12 05:55:00
11:15 PM,42.8,26.6,53,29.78,10.0,SW,20.7,27.6,N/A,,Overcast,220,2014-01-12 06:15:00
11:35 PM,41.0,28.4,61,29.78,10.0,WSW,15.0,27.6,N/A,,Overcast,240,2014-01-12 06:35:00
11:55 PM,39.2,28.4,65,29.77,10.0,WSW,9.2,-,N/A,,Overcast,250,2014-01-12 06:55:00